This is the latest recevied weather packets stored in our database for station/object SV4FHR-2. If no packets are shown the sender has not sent any weather packets the latest 10 day(s).
| Time | Temp. | Humidity | Pressure | Rain* | Wind** | Luminosity | Snow |
|---|---|---|---|---|---|---|---|
| 1778172032 | 21.11° C | 67% | 1014.3 hPa | 0 mm | - | - | - |
| 1778171732 | 21.67° C | 65% | 1014.3 hPa | 0 mm | - | - | - |
| 1778171432 | 21.67° C | 64% | 1014.2 hPa | 0 mm | - | - | - |
| 1778171132 | 21.67° C | 64% | 1014.3 hPa | 0 mm | - | - | - |
| 1778170832 | 21.67° C | 62% | 1014.3 hPa | 0 mm | - | - | - |
| 1778170532 | 22.22° C | 62% | 1014.4 hPa | 0 mm | - | - | - |
| 1778170232 | 22.22° C | 62% | 1014.5 hPa | 0 mm | - | - | - |
| 1778169932 | 22.78° C | 61% | 1014.3 hPa | 0 mm | - | - | - |
| 1778169632 | 22.22° C | 62% | 1014.4 hPa | 0 mm | - | - | - |
| 1778169332 | 22.22° C | 61% | 1014.4 hPa | 0 mm | - | - | - |
| 1778169032 | 22.78° C | 61% | 1014.3 hPa | 0 mm | - | - | - |
| 1778168732 | 22.78° C | 66% | 1014.2 hPa | 0 mm | - | - | - |
| 1778101482 | 15.56° C | 81% | 1013.1 hPa | 0 mm | - | - | - |
| 1778101182 | 15.56° C | 80% | 1013.2 hPa | 0 mm | - | - | - |
| 1778100882 | 16.11° C | 81% | 1013.1 hPa | 0 mm | - | - | - |
| 1778100582 | 16.67° C | 80% | 1012.9 hPa | 0 mm | - | - | - |
| 1778100282 | 16.67° C | 79% | 1013.1 hPa | 0 mm | - | - | - |
| 1778099982 | 16.67° C | 79% | 1013 hPa | 0 mm | - | - | - |
| 1778099682 | 16.67° C | 78% | 1013.1 hPa | 0 mm | - | - | - |
| 1778099382 | 16.67° C | 78% | 1013.1 hPa | 0 mm | - | - | - |
| 1778099082 | 16.67° C | 78% | 1013.2 hPa | 0 mm | - | - | - |
| 1778098782 | 16.67° C | 78% | 1013.1 hPa | 0 mm | - | - | - |
| 1778098482 | 17.22° C | 78% | 1012.9 hPa | 0 mm | - | - | - |
| 1778098181 | 17.22° C | 78% | 1013.2 hPa | 0 mm | - | - | - |
| 1778097881 | 17.22° C | 78% | 1012.9 hPa | 0 mm | - | - | - |
* Rain latest hour (hover to see other rain measurements)
** Current wind speed in m/s (hover to see current wind gust speed)